Masonville, Iowa
Current Conditions -  °F | °C
As of 6:15 AM on Monday 20 Oct 2014 (Local Time) from KIIB Reporting Station
Clear Clear  
Wind Chill: 41°   Ceiling: Unl
Heat Index: 45°   Visibility: 10mi
Dew Point: 41°   Wind: 7mph
Humidity: 87%   Direction: 320°NW
Pressure: 29.93"   Gusts: NA
Location:  42.48°N, 91.59°W
Report Text: KIIB 201115Z AUTO 32006KT 10SM CLR 07/05 A2993 RMK AO2
Loading
Personal Weather Stations






























Interactive Weather Map
Tropical Storm Tracking
New forecast layout! Learn more

10-Day Weather Forecast

Advertisements
Track Severe Weather on mobile